AirNav   Phillips 66 Aviation Fuel
 
 269 users online  

VA33 Beaver Dam Airpark
Surry, Virginia, USA

GOING TO SURRY?


FAA INFORMATION EFFECTIVE 12 SEPTEMBER 2019

Location

FAA Identifier: VA33
Lat/Long: 37-02-39.5400N 076-46-05.7000W
37-02.659000N 076-46.095000W
37.0443167,-76.7682500
(estimated)
Elevation: 100 ft. / 30 m (estimated)
Variation: 10W (2000)
From city: 14 miles S of SURRY, VA
Time zone: UTC -4 (UTC -5 during Standard Time)
Zip code: 23846

Airport Operations

Airport use: Private use. Permission required prior to landing
Activation date: 07/2002
Control tower: no
ARTCC: WASHINGTON CENTER
FSS: LEESBURG FLIGHT SERVICE STATION
Attendance: UNATNDD
Wind indicator: yes
Segmented circle: no

Airport Communications

WX ASOS at AKQ (12 nm W): 128.325 (757-899-2300)
WX AWOS-3 at JGG (12 nm N): 120.625 (757-220-8810)
WX ASOS at PHF (14 nm E): PHONE 757-874-3682
  • 122.85

Nearby radio navigation aids

VOR radial/distance  VOR name  Freq  Var
FKNr040/23.0FRANKLIN VORTAC110.6009W
HPWr142/23.8HOPEWELL VORTAC112.0006W
HCMr193/24.4HARCUM VORTAC108.8007W
ORFr296/28.7NORFOLK VORTAC116.9007W
RICr145/38.1RICHMOND VOR/DME114.1009W

 
NDB name  Hdg/Dist  Freq  Var  ID
WAKEFIELD083/11.727411WAKQ .- -.- --.-

Airport Services

Fuel available: 100LL MOGAS
FOR FUEL SVC, CALL 757-636-0609.
Airframe service: MAJOR
Powerplant service: MAJOR

Runway Information

Runway 9/27

Dimensions: 2500 x 100 ft. / 762 x 30 m
Surface: turf
RUNWAY 9  RUNWAY 27
Traffic pattern: leftleft
Obstructions: 40 ft. trees, 1040 ft. from runwaynone

Airport Ownership and Management from official FAA records

Ownership: Privately-owned
Owner: BEAVER DAM AIRPARK ESTATES, LLC.
8229 BEECH LAND RD
ELBERON, VA 23846
Phone 757-636-0609
OWNER NAMES ARE C.A. NUCKLES, JR., PHILIP OLAH, ROBERT STRUNK.
Manager: C.A. NUKLES, JR.
8229 BEECH LAND RD
ELBERON, VA 23846
Phone 757-503-1811

Airport Operational Statistics

Aircraft based on the field: 11
Single engine airplanes: 8
Ultralights: 3
    

Additional Remarks

PILOT LOUNGE AND RESTROOM AVBL.
FOR CD CTC NORFOLK APCH AT 757-464-0757.

Instrument Procedures

There are no published instrument procedures at VA33.

Some nearby airports with instrument procedures:

KFAF - Felker Army Airfield (9 nm NE)
KAKQ - Wakefield Municipal Airport (12 nm W)
KJGG - Williamsburg-Jamestown Airport (12 nm N)
KPHF - Newport News/Williamsburg International Airport (14 nm E)
W94 - Camp Peary Landing Strip Airport (17 nm N)
KLFI - Langley Air Force Base (20 nm E)
 
Loc | Ops | Rwys | IFR | FBO | Links
Com | Nav | Svcs | Stats | Notes
Area around VA33 (Beaver Dam Airpark)
 
Road maps at: MapQuest Bing Google
 
Aerial photo
WARNING: Photo may not be current or correct
Aerial photo of VA33 (Beaver Dam Airpark)
Photo taken 01-May-2018
looking east.

Do you have a better or more recent aerial photo of Beaver Dam Airpark that you would like to share? If so, please send us your photo.

 
Sectional chart

 
Airport distance calculator
Flying to Beaver Dam Airpark? Find the distance to fly.

From to VA33

Sunrise and sunset
Times for 15-Sep-2019
 Local
(UTC-4)
 Zulu
(UTC)
Morning civil twilight06:2410:24
Sunrise06:5010:50
Sunset19:1423:14
Evening civil twilight19:4123:41

Current date and time
Zulu (UTC)  15-Sep-2019 08:54:10
Local (UTC-4)  15-Sep-2019 04:54:10
 
METAR
KFAF 
8nm NE 
150756Z AUTO 00000KT 10SM SCT043 24/20 A3013 RMK AO2 SLP206 T02350200 $
KAKQ 
12nm W 
150754Z AUTO 00000KT 7SM SCT041 22/21 A3015 RMK AO2 SLP209 T02170206
KJGG 
12nm N 
150835Z AUTO 00000KT 10SM CLR 24/23 A3016 RMK AO1
KPHF 
14nm NE 
150802Z AUTO 00000KT 7SM CLR 22/20 A3015 RMK AO2 T02170200
KLFI 
19nm E 
150756Z 00000KT 10SM CLR 22/22 A3015 RMK AO2A SLP216 T02210221 $
TAF
KPHF 
14nm NE 
150801Z 1508/1606 VRB02KT P6SM SCT040 TEMPO 1508/1512 2SM BR FM151400 10003KT P6SM BKN050 FM151800 08006KT P6SM BKN060 FM152300 08003KT P6SM SCT100 FM160200 VRB02KT P6SM SCT200
NOTAMs
Click for the latest NOTAMs
NOTAMs are issued by the DoD/FAA and will open in a separate window not controlled by AirNav.

 

 
 

Would you like to see your business listed on this page?

 If your business provides an interesting product or service to pilots, flight crews, aircraft, or users of the Beaver Dam Airpark, you should consider listing it here.  To start the listing process, click on the button below
 
Add a business
 

Other Pages about Beaver Dam Airpark

Update a link
 
Copyright © AirNav, LLC. All rights reserved. Privacy Policy  Contact